createdAt,value
2023-01-17T00:00:23.040Z,6.00
2023-01-17T00:03:05.641Z,6.08
2023-01-17T00:06:05.967Z,5.99
2023-01-17T00:09:12.624Z,5.85
2023-01-17T00:11:54.780Z,5.94
2023-01-17T00:14:43.598Z,5.79
2023-01-17T00:17:27.565Z,5.62
2023-01-17T00:20:34.676Z,5.74
2023-01-17T00:23:38.120Z,5.88
2023-01-17T00:26:32.654Z,6.10
2023-01-17T00:29:14.585Z,6.16
2023-01-17T00:32:04.721Z,6.22
2023-01-17T00:34:52.678Z,6.18
2023-01-17T00:37:35.654Z,6.14
2023-01-17T00:40:24.655Z,6.09
2023-01-17T00:43:25.679Z,5.86
2023-01-17T00:46:39.465Z,5.95
2023-01-17T00:49:46.700Z,5.69
2023-01-17T00:52:47.457Z,5.88
2023-01-17T00:55:54.494Z,5.93
2023-01-17T00:58:55.464Z,5.88
2023-01-17T01:02:02.755Z,5.64
2023-01-17T01:05:03.333Z,5.52
2023-01-17T01:08:11.478Z,5.64
2023-01-17T01:11:13.498Z,5.69
2023-01-17T01:14:24.480Z,5.64
2023-01-17T01:17:31.657Z,5.71
2023-01-17T01:20:39.331Z,5.67
2023-01-17T01:23:40.559Z,5.82
2023-01-17T01:26:48.138Z,5.60
2023-01-17T01:29:48.603Z,5.86
2023-01-17T01:32:55.319Z,5.75
2023-01-17T01:35:37.662Z,5.76
2023-01-17T01:38:27.911Z,5.69
2023-01-17T01:41:10.735Z,5.68
2023-01-17T01:44:02.839Z,5.89
2023-01-17T01:46:57.636Z,5.51
2023-01-17T01:49:39.925Z,5.41
2023-01-17T01:52:30.556Z,5.58
2023-01-17T01:55:27.063Z,5.52
2023-01-17T01:58:17.588Z,5.74
2023-01-17T02:01:07.387Z,5.64
2023-01-17T02:03:50.589Z,5.58
2023-01-17T02:06:43.604Z,5.56
2023-01-17T02:09:26.887Z,5.46
2023-01-17T02:12:16.504Z,5.55
2023-01-17T02:14:58.818Z,5.69
2023-01-17T02:18:22.533Z,5.65
2023-01-17T02:21:24.563Z,5.79
2023-01-17T02:24:45.581Z,5.70
2023-01-17T02:27:57.558Z,5.89
2023-01-17T02:31:00.509Z,5.77
2023-01-17T02:34:21.492Z,6.11
2023-01-17T02:37:32.606Z,6.07
2023-01-17T02:40:45.548Z,6.12
2023-01-17T02:43:29.869Z,6.14
2023-01-17T02:46:34.648Z,6.51
2023-01-17T02:49:19.449Z,6.44
2023-01-17T02:52:47.592Z,6.62
2023-01-17T02:55:42.495Z,6.68
2023-01-17T02:58:30.940Z,6.83
2023-01-17T03:01:57.737Z,6.89
2023-01-17T03:05:13.659Z,6.95
2023-01-17T03:07:56.509Z,7.33
2023-01-17T03:10:49.475Z,7.32
2023-01-17T03:13:32.050Z,7.47
2023-01-17T03:16:28.590Z,7.75
2023-01-17T03:19:10.959Z,7.93
2023-01-17T03:21:59.534Z,8.21
2023-01-17T03:24:41.770Z,8.36
2023-01-17T03:27:30.542Z,8.68
2023-01-17T03:30:13.494Z,9.48
2023-01-17T03:33:02.538Z,10.43
2023-01-17T03:35:53.545Z,11.30
2023-01-17T03:38:44.642Z,12.09
2023-01-17T03:41:33.899Z,12.45
2023-01-17T03:44:16.665Z,12.87
2023-01-17T03:47:11.444Z,13.20
2023-01-17T03:50:00.588Z,13.90
2023-01-17T03:52:42.841Z,14.14
2023-01-17T03:55:31.615Z,14.68
2023-01-17T03:58:20.702Z,14.94
2023-01-17T04:01:11.439Z,15.08
2023-01-17T04:04:06.617Z,15.39
2023-01-17T04:06:49.149Z,16.19
2023-01-17T04:09:41.523Z,16.33
2023-01-17T04:12:24.055Z,16.75
2023-01-17T04:15:12.613Z,17.32
2023-01-17T04:18:07.489Z,17.48
2023-01-17T04:20:56.532Z,17.57
2023-01-17T04:23:38.852Z,17.18
2023-01-17T04:26:27.578Z,17.63
2023-01-17T04:29:16.417Z,17.93
2023-01-17T04:32:05.554Z,18.44
2023-01-17T04:34:54.469Z,17.88
2023-01-17T04:37:43.906Z,18.57
2023-01-17T04:40:26.668Z,18.92
2023-01-17T04:43:08.743Z,18.33
2023-01-17T04:45:58.551Z,17.93
2023-01-17T04:48:46.864Z,17.89
2023-01-17T04:51:28.566Z,18.07
2023-01-17T04:54:10.849Z,18.00
2023-01-17T04:56:59.639Z,18.28
2023-01-17T04:59:41.890Z,18.56
2023-01-17T05:02:30.614Z,18.29
2023-01-17T05:05:18.801Z,17.89
2023-01-17T05:08:05.568Z,17.74
2023-01-17T05:10:55.485Z,18.20
2023-01-17T05:13:37.890Z,18.47
2023-01-17T05:16:27.485Z,17.97
2023-01-17T05:19:09.833Z,18.27
2023-01-17T05:21:58.536Z,18.68
2023-01-17T05:24:40.799Z,18.44
2023-01-17T05:27:29.407Z,17.86
2023-01-17T05:30:18.526Z,18.40
2023-01-17T05:33:00.802Z,18.20
2023-01-17T05:35:42.617Z,18.27
2023-01-17T05:38:25.024Z,18.27
2023-01-17T05:41:13.582Z,18.15
2023-01-17T05:43:55.823Z,17.93
2023-01-17T05:46:44.600Z,18.02
2023-01-17T05:49:32.896Z,18.46
2023-01-17T05:52:14.572Z,18.40
2023-01-17T05:54:56.752Z,18.31
2023-01-17T05:57:45.552Z,18.37
2023-01-17T06:00:28.169Z,18.43
2023-01-17T06:03:16.904Z,18.45
2023-01-17T06:06:04.898Z,19.04
2023-01-17T06:08:46.526Z,19.23
2023-01-17T06:11:34.852Z,19.11
2023-01-17T06:14:16.524Z,19.26
2023-01-17T06:16:58.775Z,18.65
2023-01-17T06:19:47.620Z,18.71
2023-01-17T06:22:29.771Z,18.61
2023-01-17T06:25:18.449Z,18.54
2023-01-17T06:28:09.907Z,19.35
2023-01-17T06:30:52.610Z,19.01
2023-01-17T06:33:41.640Z,19.79
2023-01-17T06:36:25.415Z,19.41
2023-01-17T06:39:15.182Z,19.36
2023-01-17T06:41:57.840Z,19.79
2023-01-17T06:44:46.409Z,19.76
2023-01-17T06:47:35.614Z,19.84
2023-01-17T06:50:18.044Z,19.47
2023-01-17T06:53:15.517Z,19.69
2023-01-17T06:56:01.112Z,19.44
2023-01-17T06:58:50.458Z,19.38
2023-01-17T07:01:39.700Z,19.47
2023-01-17T07:04:21.850Z,19.26
2023-01-17T07:07:10.559Z,19.08
2023-01-17T07:09:52.812Z,19.21
2023-01-17T07:12:41.482Z,19.34
2023-01-17T07:15:30.589Z,19.30
2023-01-17T07:18:24.322Z,19.30
2023-01-17T07:21:07.511Z,19.05
2023-01-17T07:23:49.975Z,18.95
2023-01-17T07:26:38.615Z,18.72
2023-01-17T07:29:21.026Z,18.88
2023-01-17T07:32:10.552Z,18.88
2023-01-17T07:34:59.487Z,19.16
2023-01-17T07:37:41.811Z,19.04
2023-01-17T07:40:31.145Z,18.84
2023-01-17T07:43:21.407Z,19.00
2023-01-17T07:46:10.478Z,18.99
2023-01-17T07:48:58.771Z,19.17
2023-01-17T07:51:40.526Z,19.20
2023-01-17T07:54:28.806Z,18.88
2023-01-17T07:57:11.469Z,18.84
2023-01-17T07:59:54.057Z,18.75
2023-01-17T08:02:42.453Z,18.57
2023-01-17T08:05:25.378Z,18.67
2023-01-17T08:08:15.934Z,19.03
2023-01-17T08:11:05.855Z,19.09
2023-01-17T08:13:49.521Z,19.11
2023-01-17T08:16:38.510Z,19.11
2023-01-17T08:19:20.812Z,19.07
2023-01-17T08:22:09.599Z,19.30
2023-01-17T08:24:51.917Z,19.07
2023-01-17T08:27:40.675Z,19.32
2023-01-17T08:30:22.995Z,18.95
2023-01-17T08:33:11.492Z,18.96
2023-01-17T08:36:03.871Z,18.71
2023-01-17T08:38:53.011Z,18.56
2023-01-17T08:41:34.846Z,18.65
2023-01-17T08:44:23.819Z,18.54
2023-01-17T08:47:18.436Z,18.73
2023-01-17T08:50:08.422Z,18.62
2023-01-17T08:52:50.970Z,18.64
2023-01-17T08:55:40.583Z,18.59
2023-01-17T08:58:30.861Z,18.39
2023-01-17T09:01:19.601Z,18.39
2023-01-17T09:04:08.542Z,18.46
2023-01-17T09:06:58.631Z,18.22
2023-01-17T09:09:40.459Z,18.35
2023-01-17T09:12:30.532Z,18.36
2023-01-17T09:15:15.640Z,18.35
2023-01-17T09:18:05.493Z,18.53
2023-01-17T09:20:47.836Z,18.44
2023-01-17T09:23:38.504Z,18.41
2023-01-17T09:26:35.871Z,18.31
2023-01-17T09:29:26.573Z,18.22
2023-01-17T09:32:08.805Z,18.07
2023-01-17T09:34:57.477Z,18.08
2023-01-17T09:37:39.872Z,17.93
2023-01-17T09:40:32.586Z,17.96
2023-01-17T09:43:29.947Z,17.90
2023-01-17T09:46:35.494Z,17.90
2023-01-17T09:49:30.800Z,17.80
2023-01-17T09:52:15.597Z,17.83
2023-01-17T09:54:57.750Z,17.72
2023-01-17T09:58:10.547Z,17.85
2023-01-17T10:01:01.899Z,18.00
2023-01-17T10:04:22.512Z,17.80
2023-01-17T10:07:41.388Z,17.67
2023-01-17T10:10:56.150Z,17.79
2023-01-17T10:14:12.487Z,17.70
2023-01-17T10:17:10.957Z,17.78
2023-01-17T10:20:11.482Z,17.86
2023-01-17T10:23:04.963Z,18.02
2023-01-17T10:26:01.505Z,17.92
2023-01-17T10:28:55.389Z,18.08
2023-01-17T10:31:59.424Z,17.96
2023-01-17T10:34:59.495Z,17.93
2023-01-17T10:37:43.824Z,17.80
2023-01-17T10:40:36.541Z,17.56
2023-01-17T10:43:24.858Z,17.65
2023-01-17T10:46:13.536Z,17.81
2023-01-17T10:49:04.839Z,17.79
2023-01-17T10:51:57.433Z,17.42
2023-01-17T10:54:48.106Z,17.64
2023-01-17T10:57:39.489Z,17.65
2023-01-17T11:00:54.510Z,17.52
2023-01-17T11:03:43.535Z,17.29
2023-01-17T11:06:37.900Z,17.47
2023-01-17T11:09:25.896Z,17.24
2023-01-17T11:12:23.587Z,17.23
2023-01-17T11:15:33.064Z,16.97
2023-01-17T11:18:27.568Z,17.26
2023-01-17T11:21:30.797Z,17.21
2023-01-17T11:24:27.562Z,17.23
2023-01-17T11:27:12.824Z,17.00
2023-01-17T11:30:25.416Z,17.01
2023-01-17T11:33:17.449Z,17.03
2023-01-17T11:36:00.139Z,16.89
2023-01-17T11:38:49.519Z,16.77
2023-01-17T11:41:56.542Z,16.68
2023-01-17T11:44:41.738Z,16.48
2023-01-17T11:47:30.587Z,16.53
2023-01-17T11:50:32.932Z,16.30
2023-01-17T11:53:27.526Z,16.27
2023-01-17T11:56:25.799Z,16.18
2023-01-17T11:59:37.644Z,16.16
2023-01-17T12:03:01.779Z,16.14
2023-01-17T12:06:09.972Z,16.01
2023-01-17T12:09:18.513Z,15.93
2023-01-17T12:12:47.229Z,15.74
2023-01-17T12:15:48.653Z,15.55
2023-01-17T12:18:44.172Z,15.39
2023-01-17T12:21:49.533Z,15.24
2023-01-17T12:25:03.427Z,15.06
2023-01-17T12:28:19.637Z,14.86
2023-01-17T12:31:36.131Z,14.68
2023-01-17T12:34:30.520Z,14.63
2023-01-17T12:37:44.483Z,14.49
2023-01-17T12:40:52.547Z,14.33
2023-01-17T12:43:52.360Z,14.11
2023-01-17T12:47:10.806Z,13.98
2023-01-17T12:50:27.740Z,13.72
2023-01-17T12:53:48.424Z,13.57
2023-01-17T12:56:47.170Z,13.42
2023-01-17T13:00:19.808Z,13.11
2023-01-17T13:03:48.827Z,12.87
2023-01-17T13:06:41.418Z,13.21
2023-01-17T13:09:31.389Z,13.09
2023-01-17T13:12:29.417Z,12.94
2023-01-17T13:15:27.513Z,12.61
2023-01-17T13:18:26.831Z,12.40
2023-01-17T13:21:40.514Z,12.34
2023-01-17T13:25:05.777Z,12.30
2023-01-17T13:28:15.463Z,12.36
2023-01-17T13:31:36.578Z,12.30
2023-01-17T13:34:18.642Z,12.52
2023-01-17T13:37:52.485Z,12.26
2023-01-17T13:40:40.461Z,11.91
2023-01-17T13:43:40.504Z,12.11
2023-01-17T13:46:22.980Z,11.93
2023-01-17T13:49:45.884Z,11.77
2023-01-17T13:52:33.941Z,11.91
2023-01-17T13:55:16.413Z,11.68
2023-01-17T13:58:04.776Z,11.59
2023-01-17T14:00:53.492Z,11.50
2023-01-17T14:03:53.766Z,11.56
2023-01-17T14:06:52.408Z,11.49
2023-01-17T14:09:51.795Z,11.30
2023-01-17T14:12:39.543Z,11.31
2023-01-17T14:15:34.471Z,11.40
2023-01-17T14:18:53.547Z,11.47
2023-01-17T14:21:41.795Z,11.27
2023-01-17T14:24:26.504Z,11.09
2023-01-17T14:27:31.522Z,11.42
2023-01-17T14:30:24.749Z,11.41
2023-01-17T14:33:38.402Z,11.34
2023-01-17T14:36:38.497Z,11.32
2023-01-17T14:39:24.380Z,11.23
2023-01-17T14:42:13.473Z,11.23
2023-01-17T14:45:11.779Z,11.11
2023-01-17T14:48:01.625Z,11.03
2023-01-17T14:50:48.797Z,10.96
2023-01-17T14:53:41.493Z,10.70
2023-01-17T14:56:24.779Z,10.84
2023-01-17T14:59:27.608Z,10.89
2023-01-17T15:02:16.593Z,10.65
2023-01-17T15:05:05.809Z,10.71
2023-01-17T15:07:48.464Z,10.62
2023-01-17T15:10:33.557Z,10.45
2023-01-17T15:13:38.807Z,10.36
2023-01-17T15:16:39.079Z,10.49
2023-01-17T15:19:22.484Z,10.43
2023-01-17T15:22:10.796Z,10.47
2023-01-17T15:24:54.471Z,10.52
2023-01-17T15:27:36.855Z,10.70
2023-01-17T15:30:32.395Z,10.28
2023-01-17T15:33:28.522Z,10.45
2023-01-17T15:36:46.441Z,10.48
2023-01-17T15:39:41.522Z,10.27
2023-01-17T15:42:36.723Z,10.12
2023-01-17T15:45:29.521Z,10.29
2023-01-17T15:48:52.341Z,10.39
2023-01-17T15:51:46.423Z,10.29
2023-01-17T15:54:56.926Z,10.48
2023-01-17T15:57:46.421Z,10.09
2023-01-17T16:00:39.306Z,9.93
2023-01-17T16:03:28.380Z,9.73
2023-01-17T16:06:17.494Z,9.69
2023-01-17T16:09:06.532Z,9.89
2023-01-17T16:11:48.805Z,9.84
2023-01-17T16:14:59.259Z,9.82
2023-01-17T16:17:41.765Z,9.77
2023-01-17T16:20:34.495Z,9.93
2023-01-17T16:23:18.892Z,9.82
2023-01-17T16:26:07.493Z,9.59
2023-01-17T16:28:56.478Z,9.45
2023-01-17T16:31:38.719Z,9.40
2023-01-17T16:34:27.530Z,9.31
2023-01-17T16:37:21.915Z,9.41
2023-01-17T16:40:10.656Z,9.31
2023-01-17T16:42:52.917Z,9.21
2023-01-17T16:45:41.493Z,9.36
2023-01-17T16:48:30.718Z,9.44
2023-01-17T16:51:16.457Z,9.59
2023-01-17T16:54:05.428Z,9.63
2023-01-17T16:56:47.848Z,9.23
2023-01-17T16:59:49.832Z,9.16
2023-01-17T17:02:39.552Z,9.04
2023-01-17T17:05:28.475Z,9.41
2023-01-17T17:08:10.825Z,9.29
2023-01-17T17:10:59.483Z,9.38
2023-01-17T17:13:44.812Z,9.25
2023-01-17T17:16:40.511Z,9.56
2023-01-17T17:19:24.000Z,9.39
2023-01-17T17:22:14.497Z,9.22
2023-01-17T17:24:56.763Z,9.10
2023-01-17T17:27:45.526Z,9.19
2023-01-17T17:30:28.410Z,9.27
2023-01-17T17:33:20.297Z,9.17
2023-01-17T17:36:09.478Z,9.22
2023-01-17T17:38:55.314Z,9.44
2023-01-17T17:41:47.394Z,9.40
2023-01-17T17:44:36.856Z,9.53
2023-01-17T17:47:20.502Z,9.29
2023-01-17T17:50:15.277Z,9.15
2023-01-17T17:53:04.496Z,9.16
2023-01-17T17:55:46.681Z,8.95
2023-01-17T17:58:35.506Z,8.79
2023-01-17T18:01:17.825Z,8.93
2023-01-17T18:04:10.529Z,8.86
2023-01-17T18:06:53.809Z,8.77
2023-01-17T18:09:42.497Z,8.73
2023-01-17T18:12:24.847Z,8.66
2023-01-17T18:15:13.532Z,8.73
2023-01-17T18:17:57.091Z,8.61
2023-01-17T18:20:46.449Z,8.77
2023-01-17T18:23:28.822Z,8.81
2023-01-17T18:26:32.429Z,8.47
2023-01-17T18:29:16.829Z,8.63
2023-01-17T18:32:05.421Z,8.89
2023-01-17T18:34:48.664Z,8.76
2023-01-17T18:37:37.503Z,8.68
2023-01-17T18:40:20.889Z,8.51
2023-01-17T18:43:09.448Z,8.47
2023-01-17T18:45:51.766Z,8.30
2023-01-17T18:48:40.542Z,8.34
2023-01-17T18:51:25.696Z,8.38
2023-01-17T18:54:16.505Z,8.65
2023-01-17T18:57:05.434Z,8.65
2023-01-17T18:59:47.689Z,8.38
2023-01-17T19:02:36.407Z,8.34
2023-01-17T19:05:25.845Z,8.15
2023-01-17T19:08:07.425Z,8.27
2023-01-17T19:10:55.853Z,8.30
2023-01-17T19:13:40.383Z,8.09
2023-01-17T19:16:32.836Z,7.93
2023-01-17T19:19:21.394Z,7.87
2023-01-17T19:22:09.724Z,8.05
2023-01-17T19:24:52.471Z,8.15
2023-01-17T19:27:42.848Z,8.20
2023-01-17T19:30:25.386Z,7.89
2023-01-17T19:33:08.029Z,8.11
2023-01-17T19:35:56.362Z,8.22
2023-01-17T19:38:39.118Z,8.22
2023-01-17T19:41:58.440Z,8.06
2023-01-17T19:44:47.483Z,8.09
2023-01-17T19:47:36.490Z,7.87
2023-01-17T19:50:25.718Z,8.04
2023-01-17T19:53:07.405Z,7.84
2023-01-17T19:55:49.682Z,7.94
2023-01-17T19:58:39.419Z,7.98
2023-01-17T20:01:40.602Z,8.07
2023-01-17T20:04:22.610Z,7.68
2023-01-17T20:07:11.422Z,7.80
2023-01-17T20:09:59.798Z,7.81
2023-01-17T20:12:41.420Z,7.76
2023-01-17T20:15:31.413Z,7.97
2023-01-17T20:18:13.689Z,7.93
2023-01-17T20:21:02.402Z,8.01
2023-01-17T20:23:48.066Z,7.83
2023-01-17T20:26:43.417Z,7.81
2023-01-17T20:29:33.474Z,7.91
2023-01-17T20:32:15.544Z,7.81
2023-01-17T20:35:04.397Z,7.65
2023-01-17T20:37:46.604Z,7.70
2023-01-17T20:40:35.461Z,7.62
2023-01-17T20:43:23.830Z,7.63
2023-01-17T20:46:05.503Z,7.63
2023-01-17T20:49:03.267Z,7.59
2023-01-17T20:51:53.391Z,7.46
2023-01-17T20:54:36.641Z,7.41
2023-01-17T20:57:25.405Z,7.53
2023-01-17T21:00:14.437Z,7.51
2023-01-17T21:02:56.650Z,7.52
2023-01-17T21:05:45.365Z,7.53
2023-01-17T21:08:34.398Z,7.59
2023-01-17T21:11:18.858Z,7.58
2023-01-17T21:14:07.395Z,7.48
2023-01-17T21:16:51.200Z,7.37
2023-01-17T21:19:40.391Z,7.53
2023-01-17T21:22:22.710Z,7.52
2023-01-17T21:25:11.419Z,7.39
2023-01-17T21:28:00.418Z,7.56
2023-01-17T21:30:42.602Z,7.47
2023-01-17T21:33:32.465Z,7.37
2023-01-17T21:36:15.096Z,7.16
2023-01-17T21:39:12.451Z,7.19
2023-01-17T21:42:01.691Z,7.25
2023-01-17T21:44:44.381Z,7.25
2023-01-17T21:47:33.377Z,7.18
2023-01-17T21:50:32.725Z,7.31
2023-01-17T21:53:17.373Z,7.12
2023-01-17T21:56:25.575Z,6.96
2023-01-17T21:59:15.393Z,7.28
2023-01-17T22:02:03.633Z,7.36
2023-01-17T22:04:46.427Z,7.45
2023-01-17T22:07:30.045Z,7.45
2023-01-17T22:10:20.390Z,7.51
2023-01-17T22:13:02.604Z,7.57
2023-01-17T22:15:51.468Z,7.51
2023-01-17T22:18:43.366Z,7.44
2023-01-17T22:21:36.391Z,7.37
2023-01-17T22:24:24.674Z,7.37
2023-01-17T22:27:06.428Z,7.16
2023-01-17T22:29:48.515Z,7.15
2023-01-17T22:32:37.384Z,7.41
2023-01-17T22:35:19.567Z,7.40
2023-01-17T22:38:09.398Z,7.35
2023-01-17T22:40:58.341Z,7.10
2023-01-17T22:43:40.724Z,7.33
2023-01-17T22:46:32.443Z,7.20
2023-01-17T22:49:15.070Z,7.34
2023-01-17T22:52:04.344Z,7.31
2023-01-17T22:54:46.638Z,7.36
2023-01-17T22:57:35.436Z,7.29
2023-01-17T23:00:25.336Z,7.36
2023-01-17T23:03:14.487Z,7.46
2023-01-17T23:05:56.675Z,7.29
2023-01-17T23:08:48.667Z,7.48
2023-01-17T23:11:42.664Z,7.39
2023-01-17T23:14:32.434Z,7.20
2023-01-17T23:17:34.860Z,7.15
2023-01-17T23:20:23.320Z,7.18
2023-01-17T23:23:05.721Z,7.16
2023-01-17T23:25:54.374Z,7.37
2023-01-17T23:28:43.443Z,7.27
2023-01-17T23:31:32.492Z,7.20
2023-01-17T23:34:14.665Z,7.03
2023-01-17T23:37:03.337Z,7.02
2023-01-17T23:39:45.657Z,7.13
2023-01-17T23:42:52.274Z,7.23
2023-01-17T23:45:34.705Z,7.00
2023-01-17T23:48:24.445Z,6.86
2023-01-17T23:51:20.299Z,6.90
2023-01-17T23:54:13.351Z,7.06
2023-01-17T23:57:02.432Z,7.13
2023-01-17T23:59:50.595Z,6.91
